Terminal Aerodrome Forecast
Issued by NWS Boston, MA

Home | Current Version | Previous Version | Text Only | Print | Product List | Glossary Off
Versions: 1 2 3 4 5 6 7 8 9 10 11 12 13 14 15 16 17 18 19 20 21 22 23 24 25 26 27 28 29 30 31 32 33 34 35 36 37 38 39 40 41 42
000 FTUS41 KBOX 270528 TAFBOS TAF KBOS 270528Z 2706/2812 22012KT P6SM BKN090 FM271500 20011G20KT P6SM SCT090 FM272300 21016KT P6SM BKN110 FM280300 22013KT P6SM BKN020 FM280600 21011KT 5SM BR BKN010=

USA.gov is the U.S. government's official web portal to all federal, state and local government web resources and services.